Time;durP1;ratioP1;P1;durP2;ratioP2;P2;SDS_P1;SDS_P2;PMS_P1;PMS_P2;Temp;Humidity;BMP_temperature;BMP_pressure;BME280_temperature;BME280_humidity;BME280_pressure;Samples;Min_cycle;Max_cycle;Signal;HPM_P1;HPM_P2
2022/05/11 00:00:07;;;;;;;0.20;0.20;;;;;;;;;;5015790;28;20025;-86
2022/05/11 00:02:33;;;;;;;0.10;0.10;;;;;;;;;;5020363;28;20041;-86
2022/05/11 00:04:59;;;;;;;2.72;1.20;;;;;;;;;;5019231;28;20534;-86
2022/05/11 00:07:25;;;;;;;0.15;0.15;;;;;;;;;;5015900;28;20049;-87
2022/05/11 00:09:51;;;;;;;0.10;0.10;;;;;;;;;;5018568;28;20067;-87
2022/05/11 00:12:17;;;;;;;0.10;0.10;;;;;;;;;;5019958;28;20033;-87
2022/05/11 00:14:43;;;;;;;0.20;0.20;;;;;;;;;;5013779;28;20333;-86
2022/05/11 00:17:09;;;;;;;0.30;0.30;;;;;;;;;;5020493;28;20034;-86
2022/05/11 00:19:36;;;;;;;0.77;0.30;;;;;;;;;;5021273;28;20479;-86
2022/05/11 00:22:02;;;;;;;;;;;;;;;;;;5021519;28;20044;-86
2022/05/11 00:24:28;;;;;;;0.22;0.22;;;;;;;;;;5018565;28;19958;-86
2022/05/11 00:26:54;;;;;;;0.25;0.25;;;;;;;;;;5015980;28;20498;-86
2022/05/11 00:29:20;;;;;;;2.70;0.23;;;;;;;;;;5019970;28;20064;-86
2022/05/11 00:31:47;;;;;;;0.77;0.55;;;;;;;;;;5020260;28;20033;-86
2022/05/11 00:34:13;;;;;;;0.30;0.30;;;;;;;;;;5021795;28;20500;-86
2022/05/11 00:36:39;;;;;;;0.20;0.20;;;;;;;;;;5017957;28;20049;-87
2022/05/11 00:39:05;;;;;;;0.30;0.30;;;;;;;;;;5018205;28;20048;-86
2022/05/11 00:41:31;;;;;;;0.33;0.33;;;;;;;;;;5014579;28;20288;-86
2022/05/11 00:43:58;;;;;;;0.10;0.10;;;;;;;;;;5012072;28;20315;-86
2022/05/11 00:46:36;;;;;;;0.73;0.73;;;;;;;;;;5009450;28;20038;-87
2022/05/11 00:51:54;;;;;;;0.43;0.43;;;;;;;;;;5017002;28;20148;-86
2022/05/11 00:54:21;;;;;;;0.30;0.30;;;;;;;;;;5017799;28;20083;-86
2022/05/11 00:56:50;;;;;;;0.40;0.35;;;;;;;;;;5015887;28;20025;-87
2022/05/11 00:59:20;;;;;;;0.45;0.35;;;;;;;;;;5018957;28;20037;-86
2022/05/11 01:01:46;;;;;;;0.30;0.30;;;;;;;;;;5006644;28;20022;-85
2022/05/11 01:04:14;;;;;;;0.32;0.32;;;;;;;;;;5005209;28;20044;-86
2022/05/11 01:06:41;;;;;;;0.10;0.10;;;;;;;;;;5006501;28;20025;-87
2022/05/11 01:09:07;;;;;;;1.02;1.02;;;;;;;;;;5009295;28;20038;-86
2022/05/11 01:11:37;;;;;;;0.22;0.22;;;;;;;;;;5021413;28;20042;-86
2022/05/11 01:14:04;;;;;;;0.10;0.10;;;;;;;;;;5008687;28;20084;-86
2022/05/11 01:16:30;;;;;;;0.28;0.28;;;;;;;;;;5004473;28;20131;-86
2022/05/11 01:18:58;;;;;;;0.10;0.10;;;;;;;;;;5010023;28;20033;-86
2022/05/11 01:21:30;;;;;;;0.30;0.30;;;;;;;;;;5020527;28;20056;-86
2022/05/11 01:23:58;;;;;;;0.30;0.30;;;;;;;;;;5011272;28;20029;-87
2022/05/11 01:26:24;;;;;;;0.05;0.05;;;;;;;;;;4986592;28;20045;-87
2022/05/11 01:28:54;;;;;;;0.40;0.40;;;;;;;;;;5006855;28;20030;-87
2022/05/11 01:31:20;;;;;;;0.22;0.22;;;;;;;;;;5020664;28;20038;-87
2022/05/11 01:33:48;;;;;;;0.10;0.10;;;;;;;;;;5012465;28;20034;-86
2022/05/11 01:36:27;;;;;;;0.63;0.50;;;;;;;;;;5017110;28;20029;-86
2022/05/11 01:38:56;;;;;;;0.50;0.50;;;;;;;;;;4999954;28;20589;-87
2022/05/11 01:41:37;;;;;;;0.30;0.30;;;;;;;;;;5012747;28;20183;-87
2022/05/11 01:44:04;;;;;;;0.30;0.30;;;;;;;;;;5012591;28;20029;-86
2022/05/11 01:46:30;;;;;;;0.10;0.10;;;;;;;;;;5009862;28;20037;-87
2022/05/11 01:48:56;;;;;;;0.30;0.30;;;;;;;;;;5009426;28;20022;-87
2022/05/11 01:51:22;;;;;;;0.90;0.90;;;;;;;;;;5016207;28;20464;-87
2022/05/11 01:53:49;;;;;;;0.30;0.30;;;;;;;;;;5004881;28;20037;-87
2022/05/11 01:56:16;;;;;;;0.82;0.82;;;;;;;;;;5006459;28;20029;-86
2022/05/11 01:58:42;;;;;;;0.38;0.38;;;;;;;;;;5007883;28;20034;-86
2022/05/11 02:01:08;;;;;;;0.60;0.60;;;;;;;;;;5024390;28;20119;-86
2022/05/11 02:03:34;;;;;;;0.40;0.32;;;;;;;;;;5017317;28;20069;-85
2022/05/11 02:08:45;;;;;;;0.50;0.50;;;;;;;;;;5011430;28;20703;-86
2022/05/11 02:11:13;;;;;;;0.10;0.10;;;;;;;;;;5018818;28;20274;-86
2022/05/11 02:13:39;;;;;;;0.50;0.50;;;;;;;;;;5018061;28;20056;-86
2022/05/11 02:16:06;;;;;;;0.80;0.80;;;;;;;;;;5017293;28;20088;-86
2022/05/11 02:18:32;;;;;;;0.50;0.50;;;;;;;;;;5011695;28;20232;-86
2022/05/11 02:20:58;;;;;;;0.93;0.53;;;;;;;;;;4997038;28;20068;-85
2022/05/11 02:23:25;;;;;;;0.10;0.10;;;;;;;;;;5005586;28;20075;-86
2022/05/11 02:25:51;;;;;;;0.35;0.35;;;;;;;;;;5014089;28;20060;-87
2022/05/11 02:28:18;;;;;;;0.20;0.20;;;;;;;;;;5015441;28;20029;-86
2022/05/11 02:30:44;;;;;;;;;;;;;;;;;;4989194;28;20054;-86
2022/05/11 02:33:10;;;;;;;0.10;0.10;;;;;;;;;;5006246;28;19988;-87
2022/05/11 02:35:37;;;;;;;0.10;0.10;;;;;;;;;;5006107;28;20053;-87
2022/05/11 02:38:04;;;;;;;0.28;0.28;;;;;;;;;;5011897;28;20044;-87
2022/05/11 02:40:32;;;;;;;0.22;0.22;;;;;;;;;;5009969;28;20030;-86
2022/05/11 02:43:01;;;;;;;0.10;0.10;;;;;;;;;;5018064;28;20032;-86
2022/05/11 02:45:27;;;;;;;0.20;0.15;;;;;;;;;;5013302;28;20391;-85
2022/05/11 02:47:54;;;;;;;0.10;0.10;;;;;;;;;;5019070;28;20025;-86
2022/05/11 02:50:26;;;;;;;1.55;0.85;;;;;;;;;;5015474;28;20049;-86
2022/05/11 02:52:52;;;;;;;0.80;0.80;;;;;;;;;;5020010;28;20056;-85
2022/05/11 02:55:18;;;;;;;0.47;0.33;;;;;;;;;;5015161;28;20040;-85
2022/05/11 02:57:44;;;;;;;0.20;0.20;;;;;;;;;;5018759;28;20107;-86
2022/05/11 03:00:11;;;;;;;0.25;0.20;;;;;;;;;;5014267;28;20041;-85
2022/05/11 03:02:38;;;;;;;0.20;0.20;;;;;;;;;;5019718;28;20037;-85
2022/05/11 03:05:04;;;;;;;0.10;0.10;;;;;;;;;;5014207;28;20092;-87
2022/05/11 03:07:30;;;;;;;0.32;0.32;;;;;;;;;;5012126;28;20486;-86
2022/05/11 03:09:56;;;;;;;0.20;0.20;;;;;;;;;;5008006;28;20041;-86
2022/05/11 03:12:22;;;;;;;0.20;0.20;;;;;;;;;;5016637;28;20722;-87
2022/05/11 03:14:49;;;;;;;0.27;0.27;;;;;;;;;;5021252;28;20032;-86
2022/05/11 03:17:16;;;;;;;0.20;0.20;;;;;;;;;;5010822;28;20026;-87
2022/05/11 03:19:42;;;;;;;0.30;0.30;;;;;;;;;;5010686;28;20067;-86
2022/05/11 03:22:08;;;;;;;0.10;0.10;;;;;;;;;;5008677;28;21372;-86
2022/05/11 03:24:34;;;;;;;0.20;0.20;;;;;;;;;;4989286;28;20644;-86
2022/05/11 03:27:00;;;;;;;1.03;0.33;;;;;;;;;;5003266;28;20060;-86
2022/05/11 03:29:26;;;;;;;0.20;0.20;;;;;;;;;;5013218;28;20029;-86
2022/05/11 03:34:36;;;;;;;0.20;0.20;;;;;;;;;;5016430;28;20978;-87
2022/05/11 03:37:03;;;;;;;1.07;0.73;;;;;;;;;;5020031;28;20038;-86
2022/05/11 03:39:29;;;;;;;;;;;;;;;;;;5011949;28;20125;-86
2022/05/11 03:41:55;;;;;;;0.10;0.10;;;;;;;;;;5010501;28;19913;-86
2022/05/11 03:44:21;;;;;;;0.83;0.70;;;;;;;;;;5018167;28;20037;-87
2022/05/11 03:46:47;;;;;;;0.17;0.17;;;;;;;;;;5016972;28;20056;-86
2022/05/11 03:49:14;;;;;;;0.10;0.10;;;;;;;;;;5018680;28;20040;-85
2022/05/11 03:51:40;;;;;;;0.20;0.20;;;;;;;;;;5018149;28;20869;-87
2022/05/11 03:54:06;;;;;;;0.30;0.30;;;;;;;;;;5015304;28;20116;-86
2022/05/11 03:56:33;;;;;;;0.10;0.10;;;;;;;;;;5019248;28;20871;-86
2022/05/11 03:58:59;;;;;;;1.17;0.43;;;;;;;;;;5015066;28;20037;-86
2022/05/11 04:01:25;;;;;;;0.30;0.30;;;;;;;;;;5018459;28;20033;-86
2022/05/11 04:03:51;;;;;;;0.43;0.20;;;;;;;;;;5019109;28;20025;-87
2022/05/11 04:06:17;;;;;;;0.20;0.20;;;;;;;;;;5006782;28;20041;-87
2022/05/11 04:08:43;;;;;;;1.37;0.47;;;;;;;;;;5014169;28;20045;-87
2022/05/11 04:11:11;;;;;;;0.20;0.20;;;;;;;;;;5014800;28;20292;-87
2022/05/11 04:13:38;;;;;;;0.10;0.10;;;;;;;;;;5017410;28;20037;-86
2022/05/11 04:16:04;;;;;;;0.22;0.22;;;;;;;;;;5014941;28;20059;-87
2022/05/11 04:18:30;;;;;;;0.50;0.50;;;;;;;;;;5018869;28;20515;-86
2022/05/11 04:20:56;;;;;;;0.23;0.20;;;;;;;;;;5012152;28;20033;-85
2022/05/11 04:23:22;;;;;;;0.37;0.20;;;;;;;;;;5017111;28;20057;-86
2022/05/11 04:25:48;;;;;;;0.20;0.20;;;;;;;;;;5016915;28;20303;-86
2022/05/11 04:28:14;;;;;;;1.20;1.20;;;;;;;;;;5006939;28;20758;-85
2022/05/11 04:30:40;;;;;;;0.10;0.10;;;;;;;;;;5009315;28;20471;-86
2022/05/11 04:33:07;;;;;;;0.20;0.20;;;;;;;;;;5015579;28;20044;-86
2022/05/11 04:35:34;;;;;;;0.32;0.30;;;;;;;;;;5010823;28;20061;-83
2022/05/11 04:38:04;;;;;;;0.25;0.25;;;;;;;;;;5017322;28;20095;-84
2022/05/11 04:40:30;;;;;;;6.45;1.10;;;;;;;;;;5005354;28;20083;-85
2022/05/11 04:42:56;;;;;;;0.20;0.20;;;;;;;;;;4991635;28;20087;-85
2022/05/11 04:45:22;;;;;;;0.15;0.15;;;;;;;;;;5021073;28;20581;-84
2022/05/11 04:47:49;;;;;;;0.37;0.37;;;;;;;;;;5020466;28;20047;-82
2022/05/11 04:50:16;;;;;;;0.17;0.17;;;;;;;;;;5019609;28;20306;-83
2022/05/11 04:52:42;;;;;;;0.47;0.40;;;;;;;;;;5019281;28;20115;-83
2022/05/11 04:55:09;;;;;;;1.77;1.00;;;;;;;;;;5021242;28;20044;-83
2022/05/11 04:57:35;;;;;;;0.25;0.10;;;;;;;;;;5020572;28;20512;-83
2022/05/11 05:00:04;;;;;;;0.10;0.10;;;;;;;;;;5018125;28;20331;-84
2022/05/11 05:02:30;;;;;;;0.15;0.15;;;;;;;;;;5017866;28;20065;-84
2022/05/11 05:05:00;;;;;;;0.10;0.10;;;;;;;;;;5018134;28;20029;-84
2022/05/11 05:07:26;;;;;;;0.30;0.30;;;;;;;;;;5019459;28;20545;-85
2022/05/11 05:09:52;;;;;;;0.98;0.55;;;;;;;;;;5018464;28;20037;-83
2022/05/11 05:12:18;;;;;;;1.13;0.63;;;;;;;;;;5018707;28;20049;-83
2022/05/11 05:14:44;;;;;;;0.43;0.43;;;;;;;;;;5019903;28;20030;-83
2022/05/11 05:17:11;;;;;;;0.20;0.20;;;;;;;;;;5020410;28;20276;-83
2022/05/11 05:19:38;;;;;;;0.20;0.20;;;;;;;;;;5010066;28;20069;-82
2022/05/11 05:22:05;;;;;;;0.65;0.65;;;;;;;;;;5015295;28;20071;-83
2022/05/11 05:24:31;;;;;;;0.55;0.55;;;;;;;;;;5019887;28;20044;-83
2022/05/11 05:26:58;;;;;;;0.82;0.30;;;;;;;;;;5023896;28;20111;-85
2022/05/11 05:32:09;;;;;;;0.10;0.10;;;;;;;;;;5015762;28;20127;-85
2022/05/11 05:34:36;;;;;;;0.35;0.35;;;;;;;;;;5022764;28;20030;-85
2022/05/11 05:37:02;;;;;;;1.98;0.28;;;;;;;;;;5024016;28;20037;-85
2022/05/11 05:39:28;;;;;;;0.22;0.22;;;;;;;;;;5016653;28;20033;-85
2022/05/11 05:41:54;;;;;;;1.05;0.70;;;;;;;;;;5010788;28;20038;-87
2022/05/11 05:44:20;;;;;;;0.08;0.03;;;;;;;;;;5011961;28;20144;-84
2022/05/11 05:46:47;;;;;;;0.35;0.35;;;;;;;;;;5000605;28;20494;-85
2022/05/11 05:49:13;;;;;;;1.23;0.25;;;;;;;;;;5010414;28;20048;-85
2022/05/11 05:51:39;;;;;;;0.00;0.00;;;;;;;;;;5024964;28;20037;-84
2022/05/11 05:54:06;;;;;;;0.20;0.20;;;;;;;;;;5025906;28;20143;-86
2022/05/11 05:56:32;;;;;;;;;;;;;;;;;;5024860;28;20563;-85
2022/05/11 05:59:03;;;;;;;0.28;0.28;;;;;;;;;;5025657;28;19920;-85
2022/05/11 06:01:29;;;;;;;0.25;0.22;;;;;;;;;;5024527;28;20034;-84
2022/05/11 06:03:55;;;;;;;;;;;;;;;;;;5026188;28;20042;-85
2022/05/11 06:06:21;;;;;;;1.02;0.30;;;;;;;;;;5025504;28;19959;-84
2022/05/11 06:08:47;;;;;;;0.00;0.00;;;;;;;;;;5024370;28;20087;-83
2022/05/11 06:11:13;;;;;;;0.25;0.10;;;;;;;;;;5018782;28;20128;-82
2022/05/11 06:13:41;;;;;;;0.10;0.10;;;;;;;;;;5021113;28;20033;-83
2022/05/11 06:16:13;;;;;;;0.20;0.20;;;;;;;;;;5026070;28;20620;-82
2022/05/11 06:18:41;;;;;;;0.13;0.13;;;;;;;;;;5025308;28;20171;-84
2022/05/11 06:21:07;;;;;;;0.10;0.10;;;;;;;;;;5024607;28;20021;-84
2022/05/11 06:23:33;;;;;;;0.22;0.20;;;;;;;;;;5025108;28;20044;-83
2022/05/11 06:25:59;;;;;;;0.38;0.38;;;;;;;;;;5024170;28;20075;-83
2022/05/11 06:28:25;;;;;;;0.10;0.10;;;;;;;;;;5021028;28;20737;-82
2022/05/11 06:30:51;;;;;;;0.38;0.38;;;;;;;;;;5022969;28;20041;-84
2022/05/11 06:33:17;;;;;;;0.38;0.38;;;;;;;;;;5025297;28;20033;-84
2022/05/11 06:35:44;;;;;;;1.67;0.20;;;;;;;;;;5025043;28;20052;-83
2022/05/11 06:38:10;;;;;;;0.15;0.15;;;;;;;;;;5006918;28;20128;-83
2022/05/11 06:40:37;;;;;;;0.35;0.35;;;;;;;;;;5019886;28;20056;-83
2022/05/11 06:43:04;;;;;;;0.38;0.30;;;;;;;;;;5024186;28;20776;-83
2022/05/11 06:45:30;;;;;;;0.00;0.00;;;;;;;;;;5023298;28;20084;-83
2022/05/11 06:47:56;;;;;;;1.38;0.22;;;;;;;;;;5025112;28;20496;-83
2022/05/11 06:50:24;;;;;;;0.52;0.15;;;;;;;;;;5023712;28;20334;-83
2022/05/11 06:52:51;;;;;;;0.00;0.00;;;;;;;;;;5022290;28;20650;-82
2022/05/11 07:00:47;;;;;;;0.13;0.13;;;;;;;;;;5018162;28;20052;-83
2022/05/11 07:03:12;;;;;;;;;;;;;;;;;;5020303;28;20124;-85
2022/05/11 07:05:39;;;;;;;0.10;0.10;;;;;;;;;;5023753;28;20334;-85
2022/05/11 07:08:05;;;;;;;0.10;0.10;;;;;;;;;;5020242;28;20029;-84
2022/05/11 07:10:32;;;;;;;0.20;0.20;;;;;;;;;;5021448;28;20124;-84
2022/05/11 07:12:58;;;;;;;0.30;0.30;;;;;;;;;;5024232;28;20060;-84
2022/05/11 07:15:25;;;;;;;0.47;0.30;;;;;;;;;;5019786;28;20048;-83
2022/05/11 07:17:53;;;;;;;0.10;0.10;;;;;;;;;;5022955;28;20032;-85
2022/05/11 07:20:22;;;;;;;0.43;0.20;;;;;;;;;;5023335;28;20033;-84
2022/05/11 07:22:48;;;;;;;0.08;0.08;;;;;;;;;;5020413;28;20117;-84
2022/05/11 07:25:16;;;;;;;0.10;0.10;;;;;;;;;;5024624;28;20042;-85
2022/05/11 07:27:43;;;;;;;0.10;0.10;;;;;;;;;;5024354;28;20079;-84
2022/05/11 07:30:10;;;;;;;0.00;0.00;;;;;;;;;;5023945;28;20033;-84
2022/05/11 07:32:36;;;;;;;0.43;0.25;;;;;;;;;;5024377;28;20033;-84
2022/05/11 07:35:02;;;;;;;0.00;0.00;;;;;;;;;;5024389;28;20084;-84
2022/05/11 07:37:29;;;;;;;0.15;0.15;;;;;;;;;;5024669;28;20032;-84
2022/05/11 07:39:56;;;;;;;0.13;0.10;;;;;;;;;;5025091;28;20029;-84
2022/05/11 07:42:22;;;;;;;0.10;0.10;;;;;;;;;;5024366;28;20037;-84
2022/05/11 07:44:48;;;;;;;0.08;0.08;;;;;;;;;;5024019;28;20033;-84
2022/05/11 07:47:14;;;;;;;0.20;0.20;;;;;;;;;;5024266;28;20029;-83
2022/05/11 07:49:41;;;;;;;0.15;0.15;;;;;;;;;;5024233;28;20041;-84
2022/05/11 07:52:07;;;;;;;0.10;0.10;;;;;;;;;;5024476;28;20060;-84
2022/05/11 07:54:33;;;;;;;0.03;0.03;;;;;;;;;;5023881;28;20529;-83
2022/05/11 07:59:56;;;;;;;0.10;0.10;;;;;;;;;;5014987;28;20138;-84
2022/05/11 08:02:26;;;;;;;0.10;0.10;;;;;;;;;;5019808;28;20041;-84
2022/05/11 08:04:53;;;;;;;0.17;0.10;;;;;;;;;;5006346;28;20044;-84
2022/05/11 08:07:19;;;;;;;0.17;0.17;;;;;;;;;;5024818;28;20033;-83
2022/05/11 08:09:46;;;;;;;0.20;0.20;;;;;;;;;;5021479;28;20048;-84
2022/05/11 08:12:12;;;;;;;0.00;0.00;;;;;;;;;;5021130;28;20040;-84
2022/05/11 08:14:38;;;;;;;0.00;0.00;;;;;;;;;;5022666;28;20061;-84
2022/05/11 08:17:04;;;;;;;0.00;0.00;;;;;;;;;;5020449;28;20463;-84
2022/05/11 08:19:30;;;;;;;0.00;0.00;;;;;;;;;;5023310;28;20850;-84
2022/05/11 08:21:56;;;;;;;2.63;0.50;;;;;;;;;;5023005;28;20843;-85
2022/05/11 08:24:23;;;;;;;0.20;0.20;;;;;;;;;;5022389;28;20044;-85
2022/05/11 08:26:52;;;;;;;0.73;0.20;;;;;;;;;;5022031;28;20593;-85
2022/05/11 08:34:52;;;;;;;0.00;0.00;;;;;;;;;;5005452;28;20044;-84
2022/05/11 08:37:19;;;;;;;0.38;0.30;;;;;;;;;;5020336;28;20375;-86
2022/05/11 08:39:45;;;;;;;0.22;0.10;;;;;;;;;;5020629;28;20091;-84
2022/05/11 08:42:12;;;;;;;7.55;0.28;;;;;;;;;;5021515;28;20470;-84
2022/05/11 08:44:41;;;;;;;0.20;0.20;;;;;;;;;;5022369;28;20033;-84
2022/05/11 08:47:47;;;;;;;0.00;0.00;;;;;;;;;;5021513;28;20025;-84
2022/05/11 08:50:18;;;;;;;0.00;0.00;;;;;;;;;;4946453;28;20039;-84
2022/05/11 08:53:02;;;;;;;0.00;0.00;;;;;;;;;;4960712;28;20043;-84
2022/05/11 08:55:33;;;;;;;0.00;0.00;;;;;;;;;;4958660;28;20045;-84
2022/05/11 08:58:04;;;;;;;0.10;0.10;;;;;;;;;;4956889;28;20035;-83
2022/05/11 09:00:30;;;;;;;0.25;0.20;;;;;;;;;;4956834;28;20034;-83
2022/05/11 09:02:59;;;;;;;0.03;0.03;;;;;;;;;;4956162;28;20039;-82
2022/05/11 09:05:28;;;;;;;0.00;0.00;;;;;;;;;;4956827;28;20039;-82
2022/05/11 09:07:54;;;;;;;0.45;0.45;;;;;;;;;;4961470;28;20039;-83
2022/05/11 09:10:29;;;;;;;0.08;0.08;;;;;;;;;;4958002;28;20127;-82
2022/05/11 09:12:57;;;;;;;0.05;0.05;;;;;;;;;;4961638;28;20070;-82
2022/05/11 09:15:24;;;;;;;0.00;0.00;;;;;;;;;;4957098;28;20606;-82
2022/05/11 09:17:50;;;;;;;0.03;0.03;;;;;;;;;;4957945;28;20106;-83
2022/05/11 09:20:18;;;;;;;0.05;0.05;;;;;;;;;;4946248;28;20496;-81
2022/05/11 09:23:04;;;;;;;0.10;0.10;;;;;;;;;;4960743;28;20779;-81
2022/05/11 09:25:32;;;;;;;0.00;0.00;;;;;;;;;;5019544;28;20053;-82
2022/05/11 09:28:15;;;;;;;0.10;0.10;;;;;;;;;;5022637;28;20091;-83
2022/05/11 09:30:55;;;;;;;0.63;0.35;;;;;;;;;;5021662;28;20037;-82
2022/05/11 09:33:32;;;;;;;3.75;0.32;;;;;;;;;;5021436;28;20589;-82
2022/05/11 09:36:02;;;;;;;0.10;0.10;;;;;;;;;;5021546;28;20037;-82
2022/05/11 09:38:39;;;;;;;0.20;0.20;;;;;;;;;;5021392;28;20040;-81
2022/05/11 09:41:13;;;;;;;0.20;0.20;;;;;;;;;;5019602;28;20459;-81
2022/05/11 09:43:50;;;;;;;0.00;0.00;;;;;;;;;;5020964;28;20030;-82
2022/05/11 09:46:18;;;;;;;0.25;0.22;;;;;;;;;;5022417;28;20037;-82
2022/05/11 09:49:24;;;;;;;0.03;0.03;;;;;;;;;;5021281;28;20029;-81
2022/05/11 09:51:54;;;;;;;0.00;0.00;;;;;;;;;;4980130;28;20043;-81
2022/05/11 09:54:38;;;;;;;0.00;0.00;;;;;;;;;;4979778;28;20018;-82
2022/05/11 09:57:11;;;;;;;0.47;0.20;;;;;;;;;;4975391;28;20049;-82
2022/05/11 09:59:37;;;;;;;0.10;0.10;;;;;;;;;;4975433;28;20039;-82
2022/05/11 10:02:18;;;;;;;0.43;0.30;;;;;;;;;;4978268;28;20585;-81
2022/05/11 10:04:48;;;;;;;0.00;0.00;;;;;;;;;;4979416;28;20034;-82
2022/05/11 10:07:18;;;;;;;0.20;0.10;;;;;;;;;;4976448;28;20030;-81
2022/05/11 10:09:48;;;;;;;0.10;0.10;;;;;;;;;;4975257;28;20440;-82
2022/05/11 10:12:16;;;;;;;0.00;0.00;;;;;;;;;;4975729;28;20105;-82
2022/05/11 10:23:08;;;;;;;0.10;0.10;;;;;;;;;;5010667;28;20037;-84
2022/05/11 10:25:39;;;;;;;0.38;0.20;;;;;;;;;;5025057;28;20064;-85
2022/05/11 10:28:23;;;;;;;0.00;0.00;;;;;;;;;;5024701;28;20034;-84
2022/05/11 10:30:49;;;;;;;0.10;0.10;;;;;;;;;;5024903;28;20105;-83
2022/05/11 10:33:24;;;;;;;0.10;0.10;;;;;;;;;;5023636;28;20085;-83
2022/05/11 10:35:51;;;;;;;0.17;0.17;;;;;;;;;;5024686;28;20145;-84
2022/05/11 10:38:35;;;;;;;1.55;0.70;;;;;;;;;;5024055;28;20280;-84
2022/05/11 10:41:01;;;;;;;0.05;0.05;;;;;;;;;;5023557;28;20060;-84
2022/05/11 10:43:33;;;;;;;0.00;0.00;;;;;;;;;;5022123;28;20113;-84
2022/05/11 10:46:05;;;;;;;0.20;0.20;;;;;;;;;;5024932;28;20117;-86
2022/05/11 10:48:47;;;;;;;0.00;0.00;;;;;;;;;;5021133;28;20025;-85
2022/05/11 10:51:26;;;;;;;0.25;0.20;;;;;;;;;;5023015;28;20048;-84
2022/05/11 10:54:05;;;;;;;0.15;0.15;;;;;;;;;;5015429;28;20029;-85
2022/05/11 10:56:51;;;;;;;0.00;0.00;;;;;;;;;;5023420;28;20580;-86
2022/05/11 10:59:17;;;;;;;;;;;;;;;;;;5024184;28;20036;-84
2022/05/11 11:01:55;;;;;;;0.00;0.00;;;;;;;;;;5023937;28;19917;-84
2022/05/11 11:04:27;;;;;;;0.10;0.10;;;;;;;;;;5004952;28;20033;-84
2022/05/11 11:07:11;;;;;;;0.52;0.45;;;;;;;;;;5024357;28;20040;-84
2022/05/11 11:09:52;;;;;;;0.35;0.30;;;;;;;;;;5022572;28;20041;-84
2022/05/11 11:12:21;;;;;;;1.02;0.60;;;;;;;;;;5023413;28;20037;-84
2022/05/11 11:14:50;;;;;;;0.10;0.10;;;;;;;;;;5023780;28;20028;-84
2022/05/11 11:17:19;;;;;;;0.17;0.17;;;;;;;;;;5023316;28;20037;-84
2022/05/11 11:19:48;;;;;;;1.27;0.20;;;;;;;;;;5021866;28;20549;-85
2022/05/11 11:22:14;;;;;;;0.20;0.20;;;;;;;;;;5024140;28;20067;-84
2022/05/11 11:24:43;;;;;;;0.10;0.10;;;;;;;;;;5023301;28;20033;-84
2022/05/11 11:27:09;;;;;;;0.00;0.00;;;;;;;;;;5022378;28;20168;-84
2022/05/11 11:29:36;;;;;;;;;;;;;;;;;;5023524;28;20137;-84
2022/05/11 11:32:11;;;;;;;0.95;0.25;;;;;;;;;;5022989;28;19920;-84
2022/05/11 11:34:41;;;;;;;0.10;0.10;;;;;;;;;;5023250;28;20033;-85
2022/05/11 11:37:26;;;;;;;0.95;0.43;;;;;;;;;;5024259;28;20037;-83
2022/05/11 11:40:15;;;;;;;0.75;0.28;;;;;;;;;;5023934;28;20506;-85
2022/05/11 11:42:45;;;;;;;0.17;0.10;;;;;;;;;;5015470;28;20068;-84
2022/05/11 11:45:31;;;;;;;0.10;0.10;;;;;;;;;;5022715;28;20728;-84
2022/05/11 11:48:17;;;;;;;0.03;0.03;;;;;;;;;;5017691;28;20030;-82
2022/05/11 11:50:48;;;;;;;0.30;0.30;;;;;;;;;;5021657;28;20060;-83
2022/05/11 11:53:32;;;;;;;0.10;0.10;;;;;;;;;;5020446;28;20112;-82
2022/05/11 11:56:17;;;;;;;0.10;0.10;;;;;;;;;;5018983;28;20021;-83
2022/05/11 11:58:43;;;;;;;0.00;0.00;;;;;;;;;;5022784;28;20083;-82
2022/05/11 12:01:11;;;;;;;0.00;0.00;;;;;;;;;;5024226;28;20033;-82
2022/05/11 12:03:39;;;;;;;0.20;0.20;;;;;;;;;;5022663;28;20561;-82
2022/05/11 12:17:24;;;;;;;0.00;0.00;;;;;;;;;;5021708;28;20095;-82
2022/05/11 12:19:57;;;;;;;0.70;0.35;;;;;;;;;;5021518;28;20037;-83
2022/05/11 12:22:25;;;;;;;0.10;0.10;;;;;;;;;;5022450;28;20029;-82
2022/05/11 12:25:03;;;;;;;0.00;0.00;;;;;;;;;;5023350;28;20037;-82
2022/05/11 12:27:34;;;;;;;0.50;0.17;;;;;;;;;;5022398;28;20033;-83
2022/05/11 12:30:04;;;;;;;0.10;0.10;;;;;;;;;;5001189;28;20037;-82
2022/05/11 12:32:39;;;;;;;0.32;0.32;;;;;;;;;;5022074;28;20112;-82
2022/05/11 12:35:19;;;;;;;0.22;0.22;;;;;;;;;;5022287;28;20033;-82
2022/05/11 12:37:56;;;;;;;0.10;0.10;;;;;;;;;;5022058;28;20033;-83
2022/05/11 12:40:22;;;;;;;0.00;0.00;;;;;;;;;;5022097;28;20616;-82
2022/05/11 12:42:48;;;;;;;;;;;;;;;;;;5021229;28;20029;-83
2022/05/11 12:45:22;;;;;;;0.50;0.43;;;;;;;;;;5023021;28;19991;-82
2022/05/11 12:47:54;;;;;;;0.10;0.10;;;;;;;;;;5022121;28;20086;-83
2022/05/11 12:50:37;;;;;;;0.10;0.10;;;;;;;;;;5020714;28;20042;-82
2022/05/11 12:53:23;;;;;;;0.15;0.10;;;;;;;;;;5007356;28;20132;-82
2022/05/11 12:55:51;;;;;;;0.00;0.00;;;;;;;;;;5021611;28;20034;-81
2022/05/11 12:58:28;;;;;;;0.45;0.30;;;;;;;;;;5023472;28;20021;-83
2022/05/11 13:01:02;;;;;;;0.65;0.35;;;;;;;;;;5016943;28;20499;-83
2022/05/11 13:03:30;;;;;;;0.00;0.00;;;;;;;;;;5019644;28;20218;-83
2022/05/11 13:05:59;;;;;;;0.20;0.10;;;;;;;;;;5022023;28;20040;-82
2022/05/11 13:08:25;;;;;;;0.25;0.25;;;;;;;;;;5020260;28;20044;-82
2022/05/11 13:10:52;;;;;;;0.03;0.03;;;;;;;;;;5004304;28;20564;-83
2022/05/11 13:13:18;;;;;;;;;;;;;;;;;;5023592;28;20121;-83
2022/05/11 13:15:44;;;;;;;;;;;;;;;;;;5021569;28;20031;-83
2022/05/11 13:18:14;;;;;;;0.30;0.30;;;;;;;;;;5017259;28;19913;-82
2022/05/11 13:20:41;;;;;;;0.00;0.00;;;;;;;;;;5011855;28;20034;-83
2022/05/11 13:23:26;;;;;;;0.15;0.00;;;;;;;;;;5008164;28;20029;-81
2022/05/11 13:25:54;;;;;;;0.00;0.00;;;;;;;;;;5016606;28;20046;-83
2022/05/11 13:28:29;;;;;;;0.00;0.00;;;;;;;;;;5021354;28;20112;-83
2022/05/11 13:30:56;;;;;;;0.27;0.27;;;;;;;;;;5021774;28;20072;-85
2022/05/11 13:33:26;;;;;;;0.57;0.22;;;;;;;;;;5021140;28;20030;-83
2022/05/11 13:36:07;;;;;;;0.00;0.00;;;;;;;;;;5016904;28;20401;-82
2022/05/11 13:38:33;;;;;;;0.15;0.15;;;;;;;;;;5020273;28;20045;-82
2022/05/11 13:41:00;;;;;;;0.00;0.00;;;;;;;;;;5020157;28;20573;-83
2022/05/11 13:43:34;;;;;;;0.85;0.60;;;;;;;;;;5021645;28;20175;-82
2022/05/11 13:46:08;;;;;;;0.00;0.00;;;;;;;;;;5019939;28;20429;-82
2022/05/11 13:48:45;;;;;;;0.55;0.32;;;;;;;;;;5020503;28;20573;-83
2022/05/11 13:51:22;;;;;;;0.00;0.00;;;;;;;;;;5023075;28;20037;-83
2022/05/11 13:53:49;;;;;;;0.10;0.10;;;;;;;;;;5023878;28;20045;-82
2022/05/11 13:56:15;;;;;;;0.00;0.00;;;;;;;;;;5024377;28;20029;-82
2022/05/11 13:59:00;;;;;;;0.00;0.00;;;;;;;;;;5023881;28;20102;-82
2022/05/11 14:01:28;;;;;;;0.47;0.28;;;;;;;;;;5024577;28;20045;-83
2022/05/11 14:03:58;;;;;;;0.65;0.38;;;;;;;;;;5024562;28;20021;-82
2022/05/11 14:06:25;;;;;;;0.00;0.00;;;;;;;;;;5023588;28;20117;-83
2022/05/11 14:08:52;;;;;;;0.10;0.10;;;;;;;;;;5023661;28;20036;-83
2022/05/11 14:11:18;;;;;;;;;;;;;;;;;;5024226;28;20044;-83
2022/05/11 14:13:44;;;;;;;;;;;;;;;;;;5024535;28;19917;-82
2022/05/11 14:16:09;;;;;;;;;;;;;;;;;;5025565;28;19913;-83
2022/05/11 14:18:40;;;;;;;0.00;0.00;;;;;;;;;;5023707;28;19913;-83
2022/05/11 14:21:07;;;;;;;0.10;0.10;;;;;;;;;;5024906;28;20030;-84
2022/05/11 14:23:33;;;;;;;;;;;;;;;;;;5025593;28;20072;-83
2022/05/11 14:25:59;;;;;;;4.75;1.20;;;;;;;;;;5007463;28;19921;-83
2022/05/11 14:28:25;;;;;;;0.05;0.05;;;;;;;;;;5025884;28;20010;-83
2022/05/11 14:30:52;;;;;;;0.10;0.10;;;;;;;;;;5025765;28;20045;-83
2022/05/11 14:33:18;;;;;;;0.10;0.10;;;;;;;;;;5025590;28;20491;-84
2022/05/11 14:35:44;;;;;;;;;;;;;;;;;;5025347;28;20025;-83
2022/05/11 14:38:10;;;;;;;;;;;;;;;;;;5025376;28;19923;-83
2022/05/11 14:40:36;;;;;;;;;;;;;;;;;;5025290;28;19909;-84
2022/05/11 14:43:03;;;;;;;0.15;0.15;;;;;;;;;;5026259;28;20402;-84
2022/05/11 14:45:29;;;;;;;0.00;0.00;;;;;;;;;;5023175;28;20047;-85
2022/05/11 14:47:57;;;;;;;0.00;0.00;;;;;;;;;;5024372;28;20116;-84
2022/05/11 14:50:23;;;;;;;2.83;0.90;;;;;;;;;;5023690;28;20041;-83
2022/05/11 14:52:50;;;;;;;0.28;0.28;;;;;;;;;;5024315;28;20084;-84
2022/05/11 14:55:20;;;;;;;2.00;0.15;;;;;;;;;;5025321;28;20056;-83
2022/05/11 15:03:17;;;;;;;0.03;0.03;;;;;;;;;;5021379;28;20044;-82
2022/05/11 15:05:43;;;;;;;0.00;0.00;;;;;;;;;;5020746;28;20042;-84
2022/05/11 15:08:10;;;;;;;1.45;0.43;;;;;;;;;;5020882;28;20105;-84
2022/05/11 15:10:36;;;;;;;0.03;0.03;;;;;;;;;;5023157;28;20044;-84
2022/05/11 15:15:47;;;;;;;0.10;0.10;;;;;;;;;;5021015;28;20052;-83
2022/05/11 15:18:16;;;;;;;0.05;0.05;;;;;;;;;;5021172;28;20069;-83
2022/05/11 15:20:42;;;;;;;0.10;0.10;;;;;;;;;;5020933;28;20379;-83
2022/05/11 15:23:08;;;;;;;;;;;;;;;;;;5021351;28;20566;-84
2022/05/11 15:25:34;;;;;;;;;;;;;;;;;;5023542;28;19932;-83
2022/05/11 15:28:00;;;;;;;;;;;;;;;;;;5024403;28;19913;-83
2022/05/11 15:30:26;;;;;;;1.98;0.73;;;;;;;;;;5020394;28;19917;-83
2022/05/11 15:32:53;;;;;;;0.00;0.00;;;;;;;;;;5023033;28;20418;-84
2022/05/11 15:35:20;;;;;;;0.00;0.00;;;;;;;;;;5021417;28;20033;-83
2022/05/11 15:37:46;;;;;;;0.20;0.20;;;;;;;;;;5021695;28;20037;-83
2022/05/11 15:40:13;;;;;;;0.10;0.10;;;;;;;;;;5023141;28;20029;-83
2022/05/11 15:42:41;;;;;;;0.20;0.08;;;;;;;;;;5007351;28;20029;-83
2022/05/11 15:45:07;;;;;;;0.00;0.00;;;;;;;;;;5022617;28;20821;-82
2022/05/11 15:47:34;;;;;;;3.80;0.45;;;;;;;;;;5015887;28;20041;-82
2022/05/11 15:50:01;;;;;;;0.15;0.15;;;;;;;;;;5019700;28;20044;-82
2022/05/11 15:52:30;;;;;;;0.20;0.20;;;;;;;;;;5020720;28;20041;-84